Time;durP1;ratioP1;P1;durP2;ratioP2;P2;SDS_P1;SDS_P2;PMS_P1;PMS_P2;Temp;Humidity;BMP_temperature;BMP_pressure;BME280_temperature;BME280_humidity;BME280_pressure;Samples;Min_cycle;Max_cycle;Signal;HPM_P1;HPM_P2
2022/03/14 00:00:28;;;;;;;13.13;9.47;;;7.60;78.10;;;;;;5014225;28;20203;-60
2022/03/14 00:02:55;;;;;;;14.43;10.00;;;7.60;78.20;;;;;;5014341;28;20215;-60
2022/03/14 00:05:24;;;;;;;15.57;10.67;;;7.60;77.90;;;;;;5014492;28;20318;-60
2022/03/14 00:07:51;;;;;;;15.60;11.10;;;7.70;77.90;;;;;;5014185;28;20234;-60
2022/03/14 00:10:18;;;;;;;16.37;11.37;;;7.70;77.80;;;;;;5014014;28;20227;-59
2022/03/14 00:12:48;;;;;;;13.47;10.10;;;7.80;77.50;;;;;;5013889;28;20695;-60
2022/03/14 00:15:16;;;;;;;14.03;9.70;;;8.10;77.00;;;;;;5013863;28;20698;-60
2022/03/14 00:17:44;;;;;;;16.33;10.20;;;8.20;76.10;;;;;;5013765;28;20235;-60
2022/03/14 00:20:13;;;;;;;13.80;9.97;;;8.30;76.20;;;;;;5013776;28;20229;-60
2022/03/14 00:22:41;;;;;;;12.33;9.23;;;8.40;76.20;;;;;;5014526;28;20643;-60
2022/03/14 00:25:10;;;;;;;12.73;9.57;;;8.50;75.90;;;;;;5014080;28;20229;-60
2022/03/14 00:27:37;;;;;;;11.60;9.10;;;8.50;75.90;;;;;;5013652;28;20215;-60
2022/03/14 00:30:07;;;;;;;15.80;9.50;;;8.60;75.60;;;;;;5013755;28;20233;-60
2022/03/14 00:32:34;;;;;;;14.10;10.10;;;8.80;75.40;;;;;;5014243;28;20214;-60
2022/03/14 00:35:01;;;;;;;12.50;9.53;;;8.90;75.10;;;;;;5014323;28;20207;-60
2022/03/14 00:37:27;;;;;;;11.33;9.33;;;9.00;74.90;;;;;;5014554;28;20574;-60
2022/03/14 00:39:54;;;;;;;12.03;9.00;;;9.00;74.80;;;;;;5015119;28;20203;-60
2022/03/14 00:42:21;;;;;;;11.60;9.10;;;9.10;75.20;;;;;;5015084;28;20214;-60
2022/03/14 00:44:48;;;;;;;12.97;9.93;;;9.10;75.60;;;;;;5013993;28;20310;-60
2022/03/14 00:47:16;;;;;;;13.63;9.70;;;9.00;75.50;;;;;;5013538;28;20210;-60
2022/03/14 00:49:43;;;;;;;12.90;8.43;;;9.00;75.10;;;;;;5013479;28;20246;-59
2022/03/14 00:52:10;;;;;;;13.70;9.70;;;8.90;75.10;;;;;;5013564;28;20214;-60
2022/03/14 00:54:37;;;;;;;12.63;9.20;;;8.70;76.10;;;;;;5013286;28;20675;-60
2022/03/14 00:57:04;;;;;;;13.23;9.43;;;8.70;75.90;;;;;;5013222;28;20230;-60
2022/03/14 00:59:31;;;;;;;13.97;9.83;;;8.80;75.60;;;;;;5013461;28;20210;-60
2022/03/14 01:01:58;;;;;;;15.30;9.20;;;8.90;75.40;;;;;;5012324;28;20207;-60
2022/03/14 01:04:26;;;;;;;14.87;9.30;;;8.90;75.40;;;;;;5013344;28;20210;-60
2022/03/14 01:06:53;;;;;;;15.13;10.50;;;8.80;75.40;;;;;;5013053;28;20601;-60
2022/03/14 01:09:19;;;;;;;12.57;9.57;;;8.90;75.20;;;;;;5013165;28;20206;-60
2022/03/14 01:11:46;;;;;;;13.60;9.17;;;8.90;75.40;;;;;;5013141;28;20238;-59
2022/03/14 01:14:13;;;;;;;13.93;10.27;;;8.80;76.00;;;;;;5013365;28;20207;-59
2022/03/14 01:16:40;;;;;;;13.73;10.27;;;8.80;75.80;;;;;;5012890;28;20231;-60
2022/03/14 01:19:11;;;;;;;16.40;10.60;;;8.90;75.60;;;;;;5012671;28;20207;-60
2022/03/14 01:21:40;;;;;;;11.10;9.00;;;9.10;75.60;;;;;;5012854;28;20210;-60
2022/03/14 01:24:07;;;;;;;14.80;10.30;;;9.00;75.50;;;;;;5012766;28;20221;-60
2022/03/14 01:26:34;;;;;;;14.97;9.70;;;9.00;75.90;;;;;;5012730;28;20261;-60
2022/03/14 01:29:01;;;;;;;13.40;9.63;;;8.90;76.30;;;;;;5012635;28;20208;-60
2022/03/14 01:31:28;;;;;;;14.60;10.23;;;8.90;76.40;;;;;;5012782;28;20223;-63
2022/03/14 01:33:54;;;;;;;14.20;10.33;;;9.00;76.10;;;;;;5012425;28;20683;-60
2022/03/14 01:36:21;;;;;;;14.40;10.60;;;9.10;75.90;;;;;;5012894;28;20234;-59
2022/03/14 01:38:49;;;;;;;15.10;10.30;;;9.10;75.50;;;;;;5012322;28;20206;-60
2022/03/14 01:41:17;;;;;;;14.60;10.33;;;9.20;75.20;;;;;;5012387;28;20701;-60
2022/03/14 01:43:44;;;;;;;13.13;10.10;;;9.30;75.00;;;;;;5012548;28;20210;-59
2022/03/14 01:46:13;;;;;;;14.73;9.87;;;9.40;74.10;;;;;;5012752;28;20233;-60
2022/03/14 01:48:40;;;;;;;12.70;9.57;;;9.40;74.30;;;;;;5012418;28;20214;-59
2022/03/14 01:51:06;;;;;;;13.77;9.80;;;9.50;74.30;;;;;;5012476;28;20231;-60
2022/03/14 01:53:35;;;;;;;15.53;11.27;;;9.60;74.20;;;;;;5012384;28;20206;-59
2022/03/14 01:56:04;;;;;;;16.37;11.87;;;9.70;73.90;;;;;;5011800;28;20226;-60
2022/03/14 01:58:31;;;;;;;16.20;11.70;;;9.80;74.00;;;;;;5012054;28;20230;-60
2022/03/14 02:00:58;;;;;;;14.97;10.70;;;9.90;74.20;;;;;;5012687;28;20218;-60
2022/03/14 02:03:25;;;;;;;18.30;10.33;;;10.00;73.50;;;;;;5012350;28;20674;-59
2022/03/14 02:05:51;;;;;;;14.10;10.80;;;10.10;75.60;;;;;;5012661;28;20226;-60
2022/03/14 02:08:18;;;;;;;14.90;10.43;;;10.20;77.50;;;;;;5012412;28;20256;-60
2022/03/14 02:10:45;;;;;;;13.23;9.90;;;10.30;79.00;;;;;;5012350;28;20222;-60
2022/03/14 02:13:13;;;;;;;18.30;10.57;;;10.40;79.40;;;;;;5015520;28;20210;-59
2022/03/14 02:15:40;;;;;;;14.13;10.73;;;10.60;80.60;;;;;;5017154;28;20230;-60
2022/03/14 02:18:07;;;;;;;12.50;9.80;;;10.60;81.80;;;;;;5016395;28;20214;-60
2022/03/14 02:20:35;;;;;;;16.07;10.73;;;10.60;82.20;;;;;;5016403;28;20234;-59
2022/03/14 02:23:02;;;;;;;12.27;9.27;;;10.60;83.10;;;;;;5017035;28;20667;-60
2022/03/14 02:25:29;;;;;;;11.50;8.67;;;10.60;88.20;;;;;;5015818;28;20707;-60
2022/03/14 02:27:56;;;;;;;11.80;8.03;;;10.60;90.20;;;;;;5016463;28;20211;-60
2022/03/14 02:30:23;;;;;;;7.23;6.10;;;10.50;92.60;;;;;;5016431;28;20632;-60
2022/03/14 02:32:50;;;;;;;6.57;5.00;;;10.50;94.70;;;;;;5016006;28;20578;-60
2022/03/14 02:35:17;;;;;;;6.83;4.50;;;10.60;95.90;;;;;;5015392;28;20312;-60
2022/03/14 02:37:45;;;;;;;4.03;3.17;;;10.60;96.80;;;;;;5015420;28;20207;-60
2022/03/14 02:40:12;;;;;;;4.57;3.20;;;10.70;97.20;;;;;;5015722;28;20630;-60
2022/03/14 02:42:39;;;;;;;3.77;3.00;;;10.90;98.00;;;;;;5015673;28;20203;-60
2022/03/14 02:45:09;;;;;;;2.93;2.63;;;10.90;98.60;;;;;;5015526;28;20710;-60
2022/03/14 02:47:35;;;;;;;3.13;2.50;;;10.90;99.10;;;;;;5015457;28;20214;-60
2022/03/14 02:50:02;;;;;;;2.97;2.30;;;10.90;99.50;;;;;;5015782;28;20621;-60
2022/03/14 02:52:29;;;;;;;2.67;2.40;;;10.90;99.90;;;;;;5015138;28;20231;-60
2022/03/14 02:54:57;;;;;;;5.43;2.17;;;10.90;99.90;;;;;;5015449;28;20211;-60
2022/03/14 02:57:23;;;;;;;2.10;1.90;;;10.90;99.90;;;;;;5015487;28;20211;-60
2022/03/14 02:59:50;;;;;;;4.03;2.00;;;11.00;99.90;;;;;;5015260;28;20207;-60
2022/03/14 03:02:18;;;;;;;1.90;1.67;;;11.00;99.90;;;;;;5015227;28;20210;-59
2022/03/14 03:04:45;;;;;;;2.10;1.90;;;10.90;99.90;;;;;;5015247;28;20210;-60
2022/03/14 03:07:11;;;;;;;2.90;2.10;;;10.80;99.90;;;;;;5014791;28;20214;-60
2022/03/14 03:09:38;;;;;;;2.10;1.80;;;10.90;99.90;;;;;;5014936;28;20667;-60
2022/03/14 03:12:12;;;;;;;1.80;1.63;;;10.80;99.90;;;;;;5015012;28;20285;-60
2022/03/14 03:14:38;;;;;;;2.83;1.90;;;10.80;99.90;;;;;;5014931;28;20619;-59
2022/03/14 03:17:06;;;;;;;3.90;2.00;;;10.80;99.90;;;;;;5014639;28;20227;-60
2022/03/14 03:19:33;;;;;;;4.13;2.03;;;10.90;99.90;;;;;;5014823;28;20207;-60
2022/03/14 03:22:00;;;;;;;6.17;2.60;;;10.90;99.90;;;;;;5015390;28;20213;-61
2022/03/14 03:24:26;;;;;;;3.17;1.90;;;11.00;99.90;;;;;;5014492;28;20258;-59
2022/03/14 03:26:53;;;;;;;3.53;2.50;;;10.90;99.90;;;;;;5015009;28;20711;-59
2022/03/14 03:29:22;;;;;;;6.43;2.27;;;10.90;99.90;;;;;;5015091;28;20635;-59
2022/03/14 03:31:49;;;;;;;9.10;5.10;;;11.00;99.90;;;;;;5015301;28;20661;-59
2022/03/14 03:34:16;;;;;;;2.87;2.20;;;11.00;99.90;;;;;;5014934;28;20206;-59
2022/03/14 03:36:43;;;;;;;4.33;2.20;;;11.10;99.90;;;;;;5014656;28;20239;-59
2022/03/14 03:39:10;;;;;;;3.33;2.17;;;11.10;99.90;;;;;;5014613;28;20211;-59
2022/03/14 03:41:38;;;;;;;4.87;2.60;;;11.10;99.90;;;;;;5014883;28;20199;-59
2022/03/14 03:44:06;;;;;;;4.67;2.50;;;11.20;99.90;;;;;;5014675;28;20565;-60
2022/03/14 03:46:34;;;;;;;2.93;2.00;;;11.20;99.90;;;;;;5014628;28;20572;-60
2022/03/14 03:49:01;;;;;;;6.03;2.60;;;11.20;99.90;;;;;;5014732;28;20363;-60
2022/03/14 03:51:27;;;;;;;2.40;1.70;;;11.10;99.90;;;;;;5014942;28;20241;-59
2022/03/14 03:53:54;;;;;;;2.67;2.10;;;11.10;99.90;;;;;;5015459;28;20215;-59
2022/03/14 03:56:21;;;;;;;5.67;3.00;;;11.10;99.90;;;;;;5014906;28;20254;-59
2022/03/14 03:58:47;;;;;;;3.87;2.50;;;11.00;99.90;;;;;;5014069;28;20214;-59
2022/03/14 04:01:19;;;;;;;4.87;2.80;;;11.00;99.90;;;;;;5014152;28;20588;-60
2022/03/14 04:03:54;;;;;;;4.67;2.80;;;11.10;99.90;;;;;;5014413;28;20207;-59
2022/03/14 04:06:22;;;;;;;2.63;2.20;;;11.10;99.90;;;;;;5014027;28;20234;-59
2022/03/14 04:08:49;;;;;;;3.87;2.83;;;11.00;99.90;;;;;;5013892;28;20648;-59
2022/03/14 04:11:16;;;;;;;6.27;3.57;;;11.00;99.90;;;;;;5013881;28;20226;-59
2022/03/14 04:13:43;;;;;;;3.30;2.20;;;11.00;99.90;;;;;;5013905;28;20623;-59
2022/03/14 04:16:10;;;;;;;2.70;2.23;;;11.00;99.90;;;;;;5013795;28;20227;-59
2022/03/14 04:18:36;;;;;;;2.23;1.97;;;10.90;99.90;;;;;;5013668;28;20218;-59
2022/03/14 04:21:04;;;;;;;4.83;3.37;;;10.90;99.90;;;;;;5013737;28;20253;-59
2022/03/14 04:23:31;;;;;;;3.33;3.03;;;10.90;99.90;;;;;;5013740;28;20211;-59
2022/03/14 04:25:58;;;;;;;3.23;2.50;;;11.00;99.90;;;;;;5013478;28;20806;-59
2022/03/14 04:28:25;;;;;;;4.97;3.90;;;11.00;99.90;;;;;;5013385;28;20214;-59
2022/03/14 04:30:52;;;;;;;3.30;2.70;;;11.00;99.90;;;;;;5013877;28;20203;-59
2022/03/14 04:33:19;;;;;;;2.53;2.33;;;11.00;99.90;;;;;;5013865;28;20218;-59
2022/03/14 04:35:46;;;;;;;2.77;1.90;;;11.00;99.90;;;;;;5013808;28;20235;-59
2022/03/14 04:38:14;;;;;;;3.77;2.00;;;11.10;99.90;;;;;;5013801;28;20210;-59
2022/03/14 04:40:41;;;;;;;2.07;1.87;;;10.90;99.90;;;;;;5014103;28;20226;-59
2022/03/14 04:43:09;;;;;;;3.30;2.40;;;10.70;99.90;;;;;;5014192;28;20207;-59
2022/03/14 04:45:36;;;;;;;2.47;2.27;;;10.50;99.90;;;;;;5013943;28;20240;-59
2022/03/14 04:48:05;;;;;;;2.80;2.47;;;10.50;99.90;;;;;;5013679;28;20206;-59
2022/03/14 04:50:32;;;;;;;11.73;6.33;;;10.50;99.90;;;;;;5013851;28;20242;-60
2022/03/14 04:52:59;;;;;;;3.03;2.57;;;10.60;99.90;;;;;;5013473;28;20234;-59
2022/03/14 04:55:27;;;;;;;3.87;2.60;;;10.70;99.90;;;;;;5013107;28;20227;-59
2022/03/14 04:57:53;;;;;;;10.27;4.33;;;10.80;99.90;;;;;;5013346;28;20684;-59
2022/03/14 05:00:20;;;;;;;5.17;2.80;;;10.90;99.90;;;;;;5013443;28;20675;-59
2022/03/14 05:02:47;;;;;;;4.20;3.20;;;10.90;99.90;;;;;;5013572;28;20229;-59
2022/03/14 05:05:13;;;;;;;4.50;2.70;;;10.90;99.90;;;;;;5013424;28;20223;-60
2022/03/14 05:07:40;;;;;;;3.40;2.50;;;10.90;99.90;;;;;;5012918;28;20246;-59
2022/03/14 05:10:09;;;;;;;4.23;2.60;;;10.80;99.90;;;;;;5013216;28;20288;-61
2022/03/14 05:12:37;;;;;;;2.83;2.30;;;10.70;99.90;;;;;;5013030;28;20233;-60
2022/03/14 05:15:05;;;;;;;3.03;2.70;;;10.80;99.90;;;;;;5013054;28;20256;-58
2022/03/14 05:17:34;;;;;;;3.33;2.60;;;10.80;99.90;;;;;;5013037;28;20382;-59
2022/03/14 05:20:02;;;;;;;3.93;2.80;;;10.80;99.90;;;;;;5013181;28;20211;-59
2022/03/14 05:22:29;;;;;;;3.00;2.60;;;10.70;99.90;;;;;;5013078;28;20199;-59
2022/03/14 05:24:56;;;;;;;3.07;2.63;;;10.70;99.90;;;;;;5013013;28;20675;-59
2022/03/14 05:27:22;;;;;;;3.47;2.70;;;10.70;99.90;;;;;;5012675;28;20280;-59
2022/03/14 05:29:51;;;;;;;5.73;3.70;;;10.70;99.90;;;;;;5013192;28;20881;-59
2022/03/14 05:32:18;;;;;;;13.03;7.97;;;10.70;99.90;;;;;;5012834;28;20317;-60
2022/03/14 05:34:45;;;;;;;5.50;3.57;;;10.80;99.90;;;;;;5013421;28;20702;-60
2022/03/14 05:37:13;;;;;;;4.57;3.37;;;10.80;99.90;;;;;;5013015;28;20290;-59
2022/03/14 05:39:40;;;;;;;5.90;3.90;;;10.90;99.90;;;;;;5012869;28;20207;-59
2022/03/14 05:42:07;;;;;;;3.73;2.90;;;10.90;99.90;;;;;;5012784;28;20214;-59
2022/03/14 05:44:34;;;;;;;5.67;2.70;;;10.90;99.90;;;;;;5012738;28;20221;-60
2022/03/14 05:47:02;;;;;;;5.53;3.30;;;10.90;99.90;;;;;;5011484;28;20229;-59
2022/03/14 05:49:29;;;;;;;5.77;2.77;;;10.90;99.90;;;;;;5012327;28;20559;-60
2022/03/14 05:51:56;;;;;;;4.13;2.83;;;10.90;99.90;;;;;;5012541;28;20223;-61
2022/03/14 05:54:23;;;;;;;5.10;2.90;;;10.80;99.90;;;;;;5012718;28;20203;-59
2022/03/14 05:56:49;;;;;;;4.67;3.27;;;10.90;99.90;;;;;;5012610;28;20226;-59
2022/03/14 05:59:16;;;;;;;6.77;3.53;;;11.00;99.90;;;;;;5012817;28;20206;-59
2022/03/14 06:01:43;;;;;;;4.00;3.60;;;11.00;99.90;;;;;;5012204;28;20631;-59
2022/03/14 06:04:11;;;;;;;4.20;3.77;;;11.00;99.90;;;;;;5012469;28;20294;-60
2022/03/14 06:06:38;;;;;;;4.77;3.07;;;11.00;99.90;;;;;;5012712;28;20230;-60
2022/03/14 06:09:04;;;;;;;11.53;8.83;;;11.00;99.90;;;;;;5013137;28;20211;-60
2022/03/14 06:11:31;;;;;;;6.67;4.53;;;11.00;99.90;;;;;;5012816;28;20219;-59
2022/03/14 06:13:58;;;;;;;4.67;3.87;;;11.10;99.90;;;;;;5013113;28;20206;-60
2022/03/14 06:16:25;;;;;;;4.67;3.43;;;11.00;99.90;;;;;;5012666;28;20233;-60
2022/03/14 06:18:52;;;;;;;3.97;3.50;;;11.00;99.90;;;;;;5012707;28;20302;-60
2022/03/14 06:21:20;;;;;;;3.97;3.33;;;11.00;99.90;;;;;;5012908;28;20207;-60
2022/03/14 06:23:46;;;;;;;5.40;3.60;;;11.00;99.90;;;;;;5012868;28;20268;-60
2022/03/14 06:26:14;;;;;;;5.43;3.80;;;11.10;99.90;;;;;;5012672;28;20227;-60
2022/03/14 06:28:41;;;;;;;6.67;3.93;;;11.10;99.90;;;;;;5012786;28;20214;-60
2022/03/14 06:31:11;;;;;;;5.90;4.27;;;11.20;99.90;;;;;;5015469;28;20218;-60
2022/03/14 06:33:38;;;;;;;8.83;5.87;;;11.20;99.90;;;;;;5017263;28;20231;-60
2022/03/14 06:36:05;;;;;;;8.20;6.73;;;11.30;99.90;;;;;;5015546;28;20296;-60
2022/03/14 06:38:35;;;;;;;5.77;4.20;;;11.40;99.90;;;;;;5015405;28;20320;-60
2022/03/14 06:41:02;;;;;;;6.13;4.30;;;11.40;99.90;;;;;;5011977;28;20276;-60
2022/03/14 06:43:29;;;;;;;6.00;3.93;;;11.40;99.90;;;;;;5011925;28;20260;-60
2022/03/14 06:45:56;;;;;;;4.83;3.77;;;11.30;99.90;;;;;;5011938;28;20262;-60
2022/03/14 06:48:23;;;;;;;5.17;3.40;;;11.40;99.90;;;;;;5011857;28;20560;-60
2022/03/14 06:50:50;;;;;;;3.80;3.13;;;11.50;99.90;;;;;;5011685;28;20215;-60
2022/03/14 06:53:17;;;;;;;4.43;2.60;;;11.70;99.90;;;;;;5011684;28;20269;-60
2022/03/14 06:55:45;;;;;;;3.17;2.40;;;11.90;99.90;;;;;;5011702;28;20230;-60
2022/03/14 06:58:12;;;;;;;3.77;2.40;;;12.80;99.90;;;;;;5011507;28;20690;-59
2022/03/14 07:00:39;;;;;;;2.97;2.10;;;13.70;99.90;;;;;;5014775;28;20689;-60
2022/03/14 07:03:06;;;;;;;3.73;2.03;;;14.40;99.90;;;;;;5015528;28;20298;-60
2022/03/14 07:05:33;;;;;;;4.53;2.07;;;15.10;99.90;;;;;;5014905;28;20257;-60
2022/03/14 07:07:59;;;;;;;3.40;1.90;;;15.90;99.90;;;;;;5014822;28;20219;-60
2022/03/14 07:10:26;;;;;;;2.22;1.60;;;16.60;99.90;;;;;;5015039;28;20207;-61
2022/03/14 07:12:54;;;;;;;3.42;1.55;;;17.40;99.90;;;;;;5014783;28;20263;-60
2022/03/14 07:15:22;;;;;;;2.25;1.50;;;18.40;99.90;;;;;;5015857;28;20274;-60
2022/03/14 07:17:50;;;;;;;2.38;1.55;;;19.00;97.90;;;;;;5015584;28;20675;-60
2022/03/14 07:20:18;;;;;;;6.93;2.13;;;19.40;97.20;;;;;;5015224;28;20207;-60
2022/03/14 07:22:50;;;;;;;6.75;2.03;;;20.00;95.70;;;;;;5015224;28;20199;-60
2022/03/14 07:25:19;;;;;;;2.15;1.48;;;20.50;94.60;;;;;;5014540;28;20749;-63
2022/03/14 07:27:46;;;;;;;4.63;1.85;;;20.60;93.20;;;;;;5014875;28;20453;-61
2022/03/14 07:30:15;;;;;;;4.45;1.65;;;20.90;92.30;;;;;;5015143;28;20215;-64
2022/03/14 07:32:42;;;;;;;3.40;1.70;;;21.20;90.70;;;;;;5015087;28;20289;-64
2022/03/14 07:35:10;;;;;;;3.05;2.15;;;21.50;90.50;;;;;;5039521;23;20646;-58
2022/03/14 07:37:37;;;;;;;2.83;1.42;;;21.90;88.40;;;;;;5034136;28;20684;-57
2022/03/14 07:40:04;;;;;;;3.30;1.52;;;22.00;85.70;;;;;;5034478;28;20210;-57
2022/03/14 07:42:31;;;;;;;2.95;1.35;;;22.20;85.50;;;;;;5034768;28;20632;-57
2022/03/14 07:44:58;;;;;;;2.42;1.42;;;22.50;84.50;;;;;;5034107;28;20233;-57
2022/03/14 07:47:26;;;;;;;4.32;1.40;;;22.80;82.90;;;;;;5034223;28;20284;-57
2022/03/14 07:49:52;;;;;;;5.05;1.92;;;23.00;80.20;;;;;;5033804;28;20206;-58
2022/03/14 07:52:19;;;;;;;2.70;1.27;;;23.00;80.10;;;;;;5033721;28;20225;-57
2022/03/14 07:54:46;;;;;;;2.92;1.30;;;23.00;79.40;;;;;;5033952;28;20283;-58
2022/03/14 07:57:12;;;;;;;2.50;1.50;;;22.70;78.90;;;;;;5033784;28;20295;-58
2022/03/14 07:59:39;;;;;;;4.75;1.48;;;22.20;79.70;;;;;;5033706;28;20213;-58
2022/03/14 08:02:06;;;;;;;3.03;1.50;;;21.40;79.90;;;;;;5034000;28;20206;-58
2022/03/14 08:04:37;;;;;;;1.90;0.80;;;20.50;81.70;;;;;;5033952;28;20206;-58
2022/03/14 08:07:04;;;;;;;2.25;0.90;;;19.60;83.30;;;;;;5033753;28;20230;-57
2022/03/14 08:09:32;;;;;;;8.18;1.50;;;18.70;86.50;;;;;;5033713;28;20209;-58
2022/03/14 08:12:00;;;;;;;3.70;1.30;;;17.90;86.50;;;;;;5033787;28;20206;-57
2022/03/14 08:14:27;;;;;;;5.28;1.48;;;17.30;89.20;;;;;;5033869;28;20206;-57
2022/03/14 08:16:54;;;;;;;3.15;1.10;;;16.90;90.60;;;;;;5033431;28;20227;-57
2022/03/14 08:19:20;;;;;;;3.80;1.40;;;16.70;91.20;;;;;;5033399;28;20198;-58
2022/03/14 08:21:48;;;;;;;3.58;1.52;;;16.60;91.40;;;;;;5033314;28;20210;-58
2022/03/14 08:24:15;;;;;;;8.40;3.80;;;16.60;91.30;;;;;;5033358;28;20256;-57
2022/03/14 08:26:43;;;;;;;4.05;1.38;;;16.70;91.60;;;;;;5033199;28;20222;-57
2022/03/14 08:29:10;;;;;;;3.78;1.63;;;16.80;91.50;;;;;;5033075;28;20213;-57
2022/03/14 08:31:37;;;;;;;5.32;1.33;;;16.60;91.50;;;;;;5033244;28;20239;-57
2022/03/14 08:34:06;;;;;;;3.83;1.15;;;16.60;91.30;;;;;;5032937;28;20237;-57
2022/03/14 08:36:35;;;;;;;3.53;1.35;;;16.70;91.10;;;;;;5032941;28;20240;-56
2022/03/14 08:39:03;;;;;;;22.23;18.88;;;16.80;91.40;;;;;;5032719;28;20921;-56
2022/03/14 08:41:31;;;;;;;4.97;1.30;;;16.80;92.20;;;;;;5033042;28;20228;-57
2022/03/14 08:43:58;;;;;;;3.08;1.10;;;16.70;91.30;;;;;;5032834;28;20209;-57
2022/03/14 08:46:24;;;;;;;4.90;1.33;;;16.80;91.20;;;;;;5032689;28;20240;-65
2022/03/14 08:48:51;;;;;;;3.80;1.30;;;16.70;91.10;;;;;;5032301;28;20219;-60
2022/03/14 08:51:18;;;;;;;2.83;1.30;;;16.50;91.50;;;;;;5032889;28;20202;-60
2022/03/14 08:53:45;;;;;;;2.85;1.00;;;16.40;91.60;;;;;;5032778;28;20266;-60
2022/03/14 08:56:13;;;;;;;3.70;1.10;;;16.40;91.20;;;;;;5032487;28;20226;-60
2022/03/14 08:58:40;;;;;;;4.30;1.57;;;16.40;91.20;;;;;;5032609;28;20622;-61
2022/03/14 09:01:07;;;;;;;3.90;1.23;;;16.30;90.80;;;;;;5032647;28;20210;-62
2022/03/14 09:03:33;;;;;;;5.03;1.20;;;16.20;90.40;;;;;;5032663;28;20551;-60
2022/03/14 09:06:00;;;;;;;3.63;1.00;;;16.00;89.80;;;;;;5032598;28;20226;-59
2022/03/14 09:08:27;;;;;;;3.50;1.13;;;15.70;90.70;;;;;;5032487;28;20570;-59
2022/03/14 09:10:55;;;;;;;2.63;1.30;;;15.60;90.30;;;;;;5032480;28;20268;-62
2022/03/14 09:13:24;;;;;;;3.57;1.20;;;15.40;89.70;;;;;;5032396;28;20222;-60
2022/03/14 09:15:51;;;;;;;7.30;1.60;;;15.10;88.70;;;;;;5032122;28;20269;-60
2022/03/14 09:18:18;;;;;;;3.03;1.17;;;14.90;90.00;;;;;;5032546;28;20214;-59
2022/03/14 09:20:47;;;;;;;5.30;1.30;;;14.80;90.00;;;;;;5029159;28;20463;-58
2022/03/14 09:23:14;;;;;;;3.87;1.10;;;14.70;90.00;;;;;;5031707;28;20250;-64
2022/03/14 09:25:40;;;;;;;5.00;1.20;;;14.80;90.10;;;;;;5032214;28;20230;-59
2022/03/14 09:28:07;;;;;;;5.13;1.03;;;15.00;89.20;;;;;;5031817;28;20515;-59
2022/03/14 09:30:35;;;;;;;6.00;1.23;;;15.20;87.90;;;;;;5032241;28;20272;-60
2022/03/14 09:33:02;;;;;;;5.10;1.10;;;15.40;87.30;;;;;;5032310;28;20291;-59
2022/03/14 09:35:29;;;;;;;3.23;1.03;;;15.50;87.40;;;;;;5031840;28;20266;-59
2022/03/14 09:37:55;;;;;;;4.57;3.17;;;15.70;87.60;;;;;;5031584;28;20210;-60
2022/03/14 09:40:23;;;;;;;2.77;1.00;;;16.00;87.20;;;;;;5032050;28;20279;-60
2022/03/14 09:42:53;;;;;;;3.13;1.10;;;16.20;86.00;;;;;;5031836;28;20198;-62
2022/03/14 09:45:21;;;;;;;3.33;1.27;;;16.30;85.40;;;;;;5031975;28;20213;-60
2022/03/14 09:47:50;;;;;;;5.97;1.80;;;16.30;86.00;;;;;;5031816;28;20209;-62
2022/03/14 09:50:24;;;;;;;6.30;1.70;;;16.40;85.20;;;;;;5031932;28;20256;-59
2022/03/14 09:52:51;;;;;;;7.50;1.70;;;16.30;84.30;;;;;;5031919;28;20606;-62
2022/03/14 09:55:19;;;;;;;5.13;1.63;;;16.20;84.40;;;;;;5031768;28;20229;-62
2022/03/14 09:57:46;;;;;;;2.87;1.30;;;16.00;83.50;;;;;;5031708;28;20209;-63
2022/03/14 10:00:14;;;;;;;3.47;1.17;;;15.90;84.00;;;;;;5031763;28;20616;-61
2022/03/14 10:02:42;;;;;;;6.43;1.47;;;15.70;84.40;;;;;;5031599;28;20206;-59
2022/03/14 10:05:11;;;;;;;7.90;3.30;;;15.60;84.50;;;;;;5031676;28;20217;-60
2022/03/14 10:07:42;;;;;;;5.27;2.60;;;15.50;83.30;;;;;;5031648;28;20634;-61
2022/03/14 10:10:10;;;;;;;5.63;1.93;;;15.40;83.80;;;;;;5031992;28;20214;-62
2022/03/14 10:12:36;;;;;;;5.70;2.40;;;15.30;84.10;;;;;;5031832;28;20214;-56
2022/03/14 10:15:07;;;;;;;5.30;1.53;;;15.20;85.00;;;;;;5031846;28;20564;-55
2022/03/14 10:17:35;;;;;;;6.03;1.67;;;15.10;85.10;;;;;;5031755;28;20218;-56
2022/03/14 10:20:06;;;;;;;4.33;1.10;;;15.00;85.50;;;;;;5031577;28;20212;-55
2022/03/14 10:22:36;;;;;;;3.90;1.10;;;14.90;85.40;;;;;;5031629;28;20313;-55
2022/03/14 10:25:06;;;;;;;5.87;1.83;;;14.90;82.50;;;;;;5031873;28;20203;-58
2022/03/14 10:27:35;;;;;;;5.07;1.40;;;14.80;82.80;;;;;;5031857;28;20212;-55
2022/03/14 10:30:02;;;;;;;4.30;1.40;;;14.90;84.60;;;;;;5031520;28;20214;-55
2022/03/14 10:32:30;;;;;;;5.63;1.27;;;15.20;84.80;;;;;;5031809;28;20215;-58
2022/03/14 10:34:59;;;;;;;5.13;1.60;;;15.50;83.30;;;;;;5035322;28;20368;-55
2022/03/14 10:37:28;;;;;;;4.00;1.03;;;15.90;82.30;;;;;;5034981;28;20280;-56
2022/03/14 10:40:00;;;;;;;2.20;1.20;;;16.20;80.50;;;;;;5035186;28;20298;-57
2022/03/14 10:42:27;;;;;;;5.20;1.43;;;16.50;80.60;;;;;;5034991;28;20238;-56
2022/03/14 10:44:55;;;;;;;2.67;1.10;;;16.70;79.40;;;;;;5034942;28;20210;-56
2022/03/14 10:47:26;;;;;;;3.97;1.13;;;16.70;78.80;;;;;;5034771;28;20574;-56
2022/03/14 10:49:54;;;;;;;3.57;1.30;;;16.80;79.10;;;;;;5034942;28;20215;-56
2022/03/14 10:52:22;;;;;;;3.53;1.15;;;17.10;77.90;;;;;;5035078;28;20218;-56
2022/03/14 10:54:49;;;;;;;7.47;1.60;;;17.10;76.40;;;;;;5035172;28;20230;-56
2022/03/14 10:57:20;;;;;;;6.53;1.30;;;17.10;76.10;;;;;;5035043;28;20280;-57
2022/03/14 10:59:48;;;;;;;7.03;1.37;;;17.00;76.00;;;;;;5034576;28;20246;-56
2022/03/14 11:02:17;;;;;;;5.15;1.10;;;16.90;75.80;;;;;;5035186;28;20242;-56
2022/03/14 11:04:46;;;;;;;4.18;1.73;;;16.70;76.40;;;;;;5035152;28;20204;-57
2022/03/14 11:07:14;;;;;;;4.43;1.90;;;16.40;76.60;;;;;;5035007;28;20691;-56
2022/03/14 11:09:45;;;;;;;3.60;1.30;;;16.20;77.80;;;;;;5034941;28;20210;-56
2022/03/14 11:12:13;;;;;;;2.10;1.17;;;16.10;77.60;;;;;;5034909;28;20202;-56
2022/03/14 11:14:42;;;;;;;4.20;1.30;;;16.10;76.30;;;;;;5034591;28;20233;-57
2022/03/14 11:17:14;;;;;;;2.43;1.03;;;16.20;77.00;;;;;;5034476;28;20222;-56
2022/03/14 11:19:42;;;;;;;3.43;1.20;;;16.10;77.30;;;;;;5034384;28;20264;-56
2022/03/14 11:22:11;;;;;;;4.53;1.30;;;16.10;76.70;;;;;;5034377;28;20606;-56
2022/03/14 11:24:41;;;;;;;4.37;1.10;;;16.10;76.40;;;;;;5034553;28;20206;-56
2022/03/14 11:27:17;;;;;;;3.67;1.03;;;16.20;76.10;;;;;;5034295;28;20254;-56
2022/03/14 11:29:47;;;;;;;4.03;1.43;;;16.50;76.60;;;;;;5034392;28;20210;-56
2022/03/14 11:32:15;;;;;;;3.37;1.07;;;16.80;75.70;;;;;;5034584;28;20206;-56
2022/03/14 11:34:43;;;;;;;1.77;0.98;;;17.00;75.20;;;;;;5034192;28;20627;-56
2022/03/14 11:37:11;;;;;;;3.03;1.30;;;17.20;74.40;;;;;;5034119;28;20311;-56
2022/03/14 11:39:38;;;;;;;3.40;1.00;;;17.40;74.90;;;;;;5033862;28;20206;-56
2022/03/14 11:42:05;;;;;;;3.28;1.35;;;17.50;75.00;;;;;;5034072;28;20217;-56
2022/03/14 11:44:33;;;;;;;4.15;1.73;;;17.50;75.00;;;;;;5033338;28;20203;-56
2022/03/14 11:47:03;;;;;;;2.88;1.23;;;17.50;74.40;;;;;;5033970;28;20237;-56
2022/03/14 11:49:31;;;;;;;4.15;1.40;;;17.50;73.00;;;;;;5033484;28;20206;-56
2022/03/14 11:52:13;;;;;;;5.05;1.20;;;17.70;73.00;;;;;;5033900;28;20215;-56
2022/03/14 11:54:43;;;;;;;3.78;1.20;;;17.70;72.90;;;;;;5033805;28;20705;-56
2022/03/14 11:57:11;;;;;;;6.55;1.55;;;17.90;73.10;;;;;;5033693;28;20230;-56
2022/03/14 11:59:38;;;;;;;2.65;1.20;;;17.90;73.10;;;;;;5033352;28;20218;-56
2022/03/14 12:02:08;;;;;;;2.83;0.93;;;17.70;75.50;;;;;;5033637;28;20209;-55
2022/03/14 12:04:37;;;;;;;2.33;1.20;;;17.60;73.40;;;;;;5033408;28;20213;-57
2022/03/14 12:07:09;;;;;;;3.80;1.30;;;17.30;74.00;;;;;;5029445;28;20848;-62
2022/03/14 12:09:45;;;;;;;5.75;1.30;;;16.90;76.30;;;;;;5032285;28;20217;-59
2022/03/14 12:12:31;;;;;;;5.25;1.20;;;16.90;75.80;;;;;;5032574;28;20206;-59
2022/03/14 12:15:00;;;;;;;3.22;1.10;;;17.20;74.00;;;;;;5032674;28;20338;-60
2022/03/14 12:17:30;;;;;;;2.70;1.27;;;17.50;74.80;;;;;;5033152;28;20651;-60
2022/03/14 12:19:59;;;;;;;3.55;1.25;;;17.70;73.60;;;;;;5032656;28;20749;-59
2022/03/14 12:22:39;;;;;;;3.05;1.13;;;17.40;72.60;;;;;;5033232;28;20225;-60
2022/03/14 12:25:07;;;;;;;4.45;1.40;;;17.50;72.70;;;;;;5032934;28;20245;-59
2022/03/14 12:27:35;;;;;;;10.32;1.48;;;17.50;72.60;;;;;;5032951;28;20218;-59
2022/03/14 12:30:06;;;;;;;3.03;1.10;;;17.20;72.80;;;;;;5032822;28;20221;-59
2022/03/14 12:32:36;;;;;;;3.35;1.38;;;17.10;73.60;;;;;;5033249;28;20306;-60
2022/03/14 12:35:12;;;;;;;5.35;1.30;;;16.90;73.90;;;;;;5032614;28;20234;-59
2022/03/14 12:37:44;;;;;;;4.53;1.60;;;16.70;74.10;;;;;;5032769;28;20669;-60
2022/03/14 12:40:46;;;;;;;3.73;1.10;;;16.70;73.80;;;;;;5032252;28;20214;-60
2022/03/14 12:43:25;;;;;;;3.63;1.20;;;17.00;73.80;;;;;;5032408;28;20240;-59
2022/03/14 12:45:53;;;;;;;4.07;1.13;;;16.80;74.40;;;;;;5032483;28;20226;-59
2022/03/14 12:48:25;;;;;;;3.37;1.40;;;16.70;76.10;;;;;;5032401;28;20292;-59